createdAt,value
2017-10-28T00:00:26.440Z,44.03
2017-10-28T00:01:36.146Z,44.03
2017-10-28T00:02:45.178Z,44.03
2017-10-28T00:03:54.543Z,43.93
2017-10-28T00:05:03.571Z,44.12
2017-10-28T00:06:13.265Z,43.93
2017-10-28T00:07:22.633Z,44.32
2017-10-28T00:08:31.993Z,44.12
2017-10-28T00:09:41.026Z,44.12
2017-10-28T00:10:50.380Z,44.12
2017-10-28T00:11:59.081Z,44.03
2017-10-28T00:13:08.444Z,44.22
2017-10-28T00:14:17.801Z,44.03
2017-10-28T00:15:27.159Z,44.12
2017-10-28T00:16:36.190Z,44.12
2017-10-28T00:17:45.552Z,44.12
2017-10-28T00:18:54.585Z,44.32
2017-10-28T00:20:04.283Z,44.12
2017-10-28T00:21:13.316Z,43.93
2017-10-28T00:22:22.017Z,44.22
2017-10-28T00:23:31.047Z,44.03
2017-10-28T00:24:39.741Z,44.22
2017-10-28T00:25:48.445Z,44.51
2017-10-28T00:26:57.470Z,44.7
2017-10-28T00:28:06.167Z,44.59
2017-10-28T00:29:15.530Z,44.22
2017-10-28T00:30:24.229Z,44.51
2017-10-28T00:31:33.593Z,44.51
2017-10-28T00:32:42.620Z,44.32
2017-10-28T00:33:51.987Z,44.22
2017-10-28T00:35:01.702Z,44.51
2017-10-28T00:36:10.733Z,44.8
2017-10-28T00:37:20.767Z,44.7
2017-10-28T00:38:29.798Z,44.51
2017-10-28T00:39:39.157Z,44.42
2017-10-28T00:40:48.197Z,44.51
2017-10-28T00:41:57.570Z,44.32
2017-10-28T00:43:07.269Z,44.32
2017-10-28T00:44:17.297Z,44.32
2017-10-28T00:45:26.655Z,44.32
2017-10-28T00:46:35.690Z,44.29
2017-10-28T00:47:45.056Z,44.42
2017-10-28T00:48:53.753Z,44.32
2017-10-28T00:50:02.788Z,44.39
2017-10-28T00:51:11.822Z,44.42
2017-10-28T00:52:20.515Z,44.42
2017-10-28T00:53:29.549Z,44.39
2017-10-28T00:54:38.579Z,44.39
2017-10-28T00:55:47.615Z,44.39
2017-10-28T00:56:56.643Z,44.51
2017-10-28T00:58:06.018Z,44.51
2017-10-28T00:59:14.709Z,44.59
2017-10-28T01:00:23.737Z,44.49
2017-10-28T01:01:33.101Z,44.51
2017-10-28T01:02:42.173Z,44.49
2017-10-28T01:03:51.187Z,44.51
2017-10-28T01:05:00.547Z,44.49
2017-10-28T01:06:09.912Z,44.42
2017-10-28T01:07:18.612Z,44.49
2017-10-28T01:08:27.975Z,44.49
2017-10-28T01:09:37.010Z,44.49
2017-10-28T01:10:45.707Z,44.49
2017-10-28T01:11:55.071Z,44.39
2017-10-28T01:13:04.434Z,44.59
2017-10-28T01:14:13.127Z,44.49
2017-10-28T01:15:21.828Z,44.49
2017-10-28T01:16:31.532Z,44.39
2017-10-28T01:17:40.555Z,44.6
2017-10-28T01:18:49.581Z,44.59
2017-10-28T01:19:58.949Z,44.12
2017-10-28T01:21:07.975Z,44.49
2017-10-28T01:22:18.007Z,44.51
2017-10-28T01:23:27.368Z,44.59
2017-10-28T01:24:36.396Z,44.49
2017-10-28T01:25:45.443Z,44.39
2017-10-28T01:26:55.139Z,44.39
2017-10-28T01:28:04.505Z,44.59
2017-10-28T01:29:13.204Z,44.51
2017-10-28T01:30:22.569Z,44.39
2017-10-28T01:31:31.267Z,44.2
2017-10-28T01:32:40.630Z,44.49
2017-10-28T01:33:49.341Z,44.39
2017-10-28T01:34:58.688Z,44.29
2017-10-28T01:36:07.729Z,44.29
2017-10-28T01:37:17.094Z,44.39
2017-10-28T01:38:26.456Z,44.2
2017-10-28T01:39:35.155Z,44.59
2017-10-28T01:40:43.862Z,44.2
2017-10-28T01:41:52.890Z,44.2
2017-10-28T01:43:01.588Z,44.29
2017-10-28T01:44:10.618Z,44.29
2017-10-28T01:45:19.652Z,44.29
2017-10-28T01:46:28.702Z,44.2
2017-10-28T01:47:37.734Z,44.29
2017-10-28T01:48:47.100Z,44.29
2017-10-28T01:49:56.472Z,44.49
2017-10-28T01:51:05.167Z,44.29
2017-10-28T01:52:13.866Z,44.29
2017-10-28T01:53:22.896Z,44.29
2017-10-28T01:54:31.598Z,44.29
2017-10-28T01:55:40.298Z,44.29
2017-10-28T01:56:48.998Z,44.59
2017-10-28T01:57:58.697Z,44.1
2017-10-28T01:59:07.727Z,44.2
2017-10-28T02:00:16.424Z,44.49
2017-10-28T02:01:25.119Z,44.29
2017-10-28T02:02:35.152Z,44.39
2017-10-28T02:03:43.848Z,44.2
2017-10-28T02:04:53.210Z,44.49
2017-10-28T02:06:02.920Z,44.39
2017-10-28T02:07:12.618Z,44.29
2017-10-28T02:08:21.319Z,44.29
2017-10-28T02:09:30.020Z,44.29
2017-10-28T02:10:39.389Z,44.39
2017-10-28T02:11:48.424Z,44.2
2017-10-28T02:12:57.121Z,44.2
2017-10-28T02:14:06.815Z,44.29
2017-10-28T02:15:16.183Z,44.49
2017-10-28T02:16:25.218Z,44.29
2017-10-28T02:17:34.250Z,44.29
2017-10-28T02:18:43.969Z,44.29
2017-10-28T02:19:53.008Z,44.2
2017-10-28T02:21:02.369Z,44.2
2017-10-28T02:22:11.735Z,44.2
2017-10-28T02:23:20.432Z,44.2
2017-10-28T02:24:29.795Z,44.39
2017-10-28T02:25:39.155Z,44.1
2017-10-28T02:26:48.189Z,44.2
2017-10-28T02:27:57.223Z,44.2
2017-10-28T02:29:06.260Z,44.29
2017-10-28T02:30:15.624Z,44.2
2017-10-28T02:31:24.651Z,44.1
2017-10-28T02:32:33.698Z,44.29
2017-10-28T02:33:42.733Z,44.29
2017-10-28T02:34:52.102Z,44.29
2017-10-28T02:36:01.471Z,44.29
2017-10-28T02:37:10.171Z,44.29
2017-10-28T02:38:19.209Z,44.01
2017-10-28T02:39:27.919Z,44.2
2017-10-28T02:40:37.277Z,44.1
2017-10-28T02:41:46.310Z,44.39
2017-10-28T02:42:55.684Z,44.29
2017-10-28T02:44:04.720Z,44.2
2017-10-28T02:45:13.749Z,44.1
2017-10-28T02:46:22.448Z,44.29
2017-10-28T02:47:31.815Z,44.2
2017-10-28T02:48:40.845Z,44.2
2017-10-28T02:49:49.878Z,44.29
2017-10-28T02:50:59.246Z,44.2
2017-10-28T02:52:08.614Z,44.49
2017-10-28T02:53:17.991Z,44.2
2017-10-28T02:54:27.015Z,44.2
2017-10-28T02:55:35.719Z,44.97
2017-10-28T02:56:44.431Z,44.2
2017-10-28T02:57:53.795Z,44.39
2017-10-28T02:59:03.160Z,44.2
2017-10-28T03:00:12.211Z,44.2
2017-10-28T03:01:21.575Z,44.2
2017-10-28T03:02:30.936Z,44.2
2017-10-28T03:03:39.633Z,43.91
2017-10-28T03:04:48.333Z,44.39
2017-10-28T03:05:57.364Z,44.59
2017-10-28T03:07:06.736Z,44.1
2017-10-28T03:08:15.767Z,44.97
2017-10-28T03:09:24.793Z,44.29
2017-10-28T03:10:33.492Z,44.2
2017-10-28T03:11:42.523Z,44.97
2017-10-28T03:12:51.565Z,43.89
2017-10-28T03:14:00.603Z,44.08
2017-10-28T03:15:09.964Z,44.27
2017-10-28T03:16:18.663Z,44.2
2017-10-28T03:17:27.702Z,44.08
2017-10-28T03:18:37.400Z,44.95
2017-10-28T03:19:46.429Z,44.27
2017-10-28T03:20:55.130Z,44.76
2017-10-28T03:22:04.493Z,44.39
2017-10-28T03:23:13.521Z,44.37
2017-10-28T03:24:22.881Z,44.37
2017-10-28T03:25:31.910Z,44.56
2017-10-28T03:26:40.938Z,44.27
2017-10-28T03:27:50.302Z,44.37
2017-10-28T03:28:59.332Z,44.27
2017-10-28T03:30:08.707Z,44.46
2017-10-28T03:31:18.069Z,44.46
2017-10-28T03:32:26.765Z,44.46
2017-10-28T03:33:35.797Z,44.37
2017-10-28T03:34:44.837Z,44.08
2017-10-28T03:35:54.200Z,44.46
2017-10-28T03:37:02.895Z,44.27
2017-10-28T03:38:11.594Z,44.37
2017-10-28T03:39:20.626Z,44.08
2017-10-28T03:40:29.321Z,44.56
2017-10-28T03:41:38.352Z,44.66
2017-10-28T03:42:47.719Z,44.66
2017-10-28T03:43:57.080Z,44.37
2017-10-28T03:45:06.460Z,44.56
2017-10-28T03:46:15.157Z,44.27
2017-10-28T03:47:24.519Z,44.37
2017-10-28T03:48:33.875Z,44.27
2017-10-28T03:49:42.908Z,44.95
2017-10-28T03:50:51.930Z,44.46
2017-10-28T03:52:01.624Z,44.27
2017-10-28T03:53:10.656Z,44.37
2017-10-28T03:54:19.688Z,44.37
2017-10-28T03:55:28.734Z,44.37
2017-10-28T03:56:37.432Z,44.66
2017-10-28T03:57:46.799Z,44.95
2017-10-28T03:58:56.159Z,44.95
2017-10-28T04:00:05.190Z,44.18
2017-10-28T04:01:14.223Z,43.98
2017-10-28T04:02:23.253Z,43.98
2017-10-28T04:03:32.282Z,44.08
2017-10-28T04:04:41.644Z,43.98
2017-10-28T04:05:51.005Z,44.37
2017-10-28T04:07:00.040Z,44.95
2017-10-28T04:08:09.404Z,43.98
2017-10-28T04:09:18.099Z,44.37
2017-10-28T04:10:27.133Z,44.18
2017-10-28T04:11:36.164Z,44.27
2017-10-28T04:12:45.192Z,44.46
2017-10-28T04:13:53.893Z,43.98
2017-10-28T04:15:02.588Z,43.98
2017-10-28T04:16:11.619Z,44.08
2017-10-28T04:17:20.646Z,44.18
2017-10-28T04:18:29.678Z,44.27
2017-10-28T04:19:39.042Z,44.27
2017-10-28T04:20:48.073Z,44.46
2017-10-28T04:21:57.772Z,44.37
2017-10-28T04:23:07.121Z,44.37
2017-10-28T04:24:16.813Z,44.37
2017-10-28T04:25:25.843Z,44.37
2017-10-28T04:26:34.877Z,44.37
2017-10-28T04:27:44.240Z,44.46
2017-10-28T04:28:53.268Z,44.37
2017-10-28T04:30:02.639Z,44.27
2017-10-28T04:31:11.658Z,44.37
2017-10-28T04:32:20.690Z,44.37
2017-10-28T04:33:30.052Z,44.18
2017-10-28T04:34:39.088Z,43.89
2017-10-28T04:35:48.453Z,43.89
2017-10-28T04:36:57.500Z,44.08
2017-10-28T04:38:07.221Z,44.08
2017-10-28T04:39:16.264Z,44.18
2017-10-28T04:40:25.626Z,43.98
2017-10-28T04:41:34.657Z,44.18
2017-10-28T04:42:43.352Z,43.89
2017-10-28T04:43:52.380Z,43.98
2017-10-28T04:45:01.076Z,44.27
2017-10-28T04:46:10.440Z,44.08
2017-10-28T04:47:19.800Z,44.37
2017-10-28T04:48:29.829Z,43.89
2017-10-28T04:49:38.524Z,44.56
2017-10-28T04:50:47.555Z,43.98
2017-10-28T04:51:56.917Z,43.89
2017-10-28T04:53:05.951Z,44.46
2017-10-28T04:54:14.651Z,44.59
2017-10-28T04:55:23.347Z,43.91
2017-10-28T04:56:32.719Z,43.91
2017-10-28T04:57:41.418Z,43.81
2017-10-28T04:58:51.116Z,43.81
2017-10-28T05:00:00.510Z,43.91
2017-10-28T05:01:09.538Z,43.81
2017-10-28T05:02:18.568Z,43.43
2017-10-28T05:03:28.274Z,43.91
2017-10-28T05:04:37.300Z,44.1
2017-10-28T05:05:46.332Z,43.72
2017-10-28T05:06:55.360Z,43.81
2017-10-28T05:08:05.061Z,43.62
2017-10-28T05:09:14.092Z,43.91
2017-10-28T05:10:23.128Z,44.01
2017-10-28T05:11:32.492Z,43.91
2017-10-28T05:12:41.190Z,43.91
2017-10-28T05:13:50.892Z,43.91
2017-10-28T05:14:59.592Z,43.52
2017-10-28T05:16:08.956Z,43.72
2017-10-28T05:17:18.323Z,43.62
2017-10-28T05:18:27.357Z,43.24
2017-10-28T05:19:36.719Z,43.72
2017-10-28T05:20:45.426Z,43.43
2017-10-28T05:21:54.460Z,43.62
2017-10-28T05:23:03.507Z,43.52
2017-10-28T05:24:12.877Z,43.43
2017-10-28T05:25:22.575Z,43.33
2017-10-28T05:26:31.946Z,43.33
2017-10-28T05:27:41.305Z,43.33
2017-10-28T05:28:50.001Z,43.43
2017-10-28T05:29:59.373Z,43.24
2017-10-28T05:31:08.411Z,43.33
2017-10-28T05:32:17.443Z,43.24
2017-10-28T05:33:26.511Z,43.43
2017-10-28T05:34:36.208Z,43.33
2017-10-28T05:35:45.236Z,43.33
2017-10-28T05:36:54.271Z,43.14
2017-10-28T05:38:03.637Z,43.24
2017-10-28T05:39:12.336Z,43.14
2017-10-28T05:40:21.360Z,42.94
2017-10-28T05:41:30.058Z,43.24
2017-10-28T05:42:38.754Z,43.04
2017-10-28T05:43:47.786Z,43.04
2017-10-28T05:44:56.818Z,42.94
2017-10-28T05:46:06.181Z,43.24
2017-10-28T05:47:14.877Z,43.14
2017-10-28T05:48:23.577Z,43.24
2017-10-28T05:49:32.615Z,43.04
2017-10-28T05:50:41.978Z,43.04
2017-10-28T05:51:51.012Z,42.85
2017-10-28T05:52:59.708Z,42.66
2017-10-28T05:54:08.406Z,42.85
2017-10-28T05:55:17.768Z,43.14
2017-10-28T05:56:27.137Z,42.56
2017-10-28T05:57:36.168Z,43.14
2017-10-28T05:58:45.560Z,42.85
2017-10-28T05:59:54.607Z,42.85
2017-10-28T06:01:04.283Z,42.85
2017-10-28T06:02:13.314Z,42.85
2017-10-28T06:03:22.698Z,43.14
2017-10-28T06:04:32.060Z,43.33
2017-10-28T06:05:41.424Z,43.24
2017-10-28T06:06:50.781Z,43.14
2017-10-28T06:07:59.473Z,42.85
2017-10-28T06:09:08.507Z,42.85
2017-10-28T06:10:17.876Z,43.14
2017-10-28T06:11:26.908Z,42.75
2017-10-28T06:12:35.937Z,43.04
2017-10-28T06:13:45.325Z,43.04
2017-10-28T06:14:54.368Z,42.75
2017-10-28T06:16:03.400Z,42.85
2017-10-28T06:17:12.429Z,42.66
2017-10-28T06:18:21.466Z,42.66
2017-10-28T06:19:30.154Z,42.56
2017-10-28T06:20:39.522Z,42.46
2017-10-28T06:21:49.218Z,43.04
2017-10-28T06:22:58.250Z,42.75
2017-10-28T06:24:07.613Z,42.77
2017-10-28T06:25:17.324Z,42.75
2017-10-28T06:26:26.687Z,43.06
2017-10-28T06:27:35.723Z,42.68
2017-10-28T06:28:44.414Z,43.26
2017-10-28T06:29:53.775Z,42.85
2017-10-28T06:31:02.805Z,42.85
2017-10-28T06:32:12.843Z,42.75
2017-10-28T06:33:21.540Z,42.77
2017-10-28T06:34:30.901Z,42.77
2017-10-28T06:35:40.933Z,42.66
2017-10-28T06:36:49.966Z,42.85
2017-10-28T06:37:58.663Z,42.66
2017-10-28T06:39:07.361Z,42.75
2017-10-28T06:40:16.392Z,42.68
2017-10-28T06:41:25.422Z,42.85
2017-10-28T06:42:34.118Z,42.87
2017-10-28T06:43:43.150Z,42.75
2017-10-28T06:44:52.181Z,42.46
2017-10-28T06:46:01.204Z,42.85
2017-10-28T06:47:10.243Z,42.85
2017-10-28T06:48:19.937Z,42.77
2017-10-28T06:49:28.975Z,42.46
2017-10-28T06:50:37.672Z,42.39
2017-10-28T06:51:46.369Z,42.39
2017-10-28T06:52:55.729Z,42.85
2017-10-28T06:54:04.760Z,42.87
2017-10-28T06:55:13.792Z,42.66
2017-10-28T06:56:23.489Z,42.39
2017-10-28T06:57:32.853Z,42.87
2017-10-28T06:58:41.879Z,42.97
2017-10-28T06:59:50.906Z,42.85
2017-10-28T07:01:00.272Z,42.39
2017-10-28T07:02:08.965Z,42.39
2017-10-28T07:03:18.003Z,42.39
2017-10-28T07:04:27.032Z,42.18
2017-10-28T07:05:36.391Z,42.39
2017-10-28T07:06:45.425Z,42.48
2017-10-28T07:07:54.788Z,42.85
2017-10-28T07:09:03.490Z,42.48
2017-10-28T07:10:12.546Z,42.68
2017-10-28T07:11:21.556Z,42.29
2017-10-28T07:12:30.595Z,42.68
2017-10-28T07:13:39.640Z,42.48
2017-10-28T07:14:48.338Z,42.58
2017-10-28T07:15:58.035Z,42.48
2017-10-28T07:17:07.403Z,42.48
2017-10-28T07:18:16.435Z,42.39
2017-10-28T07:19:25.795Z,42.29
2017-10-28T07:20:34.824Z,42.48
2017-10-28T07:21:43.526Z,42.58
2017-10-28T07:22:52.555Z,42.48
2017-10-28T07:24:01.253Z,42.58
2017-10-28T07:25:10.961Z,42.58
2017-10-28T07:26:19.657Z,42.58
2017-10-28T07:27:29.018Z,42.58
2017-10-28T07:28:38.053Z,42.58
2017-10-28T07:29:47.086Z,42.29
2017-10-28T07:30:56.804Z,42.29
2017-10-28T07:32:05.852Z,42.58
2017-10-28T07:33:14.887Z,42.58
2017-10-28T07:34:23.586Z,42.39
2017-10-28T07:35:32.623Z,42.29
2017-10-28T07:36:41.654Z,42.19
2017-10-28T07:37:51.348Z,42.19
2017-10-28T07:39:00.376Z,42.1
2017-10-28T07:40:10.125Z,42.29
2017-10-28T07:41:19.506Z,42.39
2017-10-28T07:42:28.535Z,42.1
2017-10-28T07:43:37.896Z,42.1
2017-10-28T07:44:46.926Z,42.29
2017-10-28T07:45:55.956Z,42.1
2017-10-28T07:47:05.652Z,42.1
2017-10-28T07:48:15.349Z,42.39
2017-10-28T07:49:24.049Z,42
2017-10-28T07:50:32.741Z,41.91
2017-10-28T07:51:41.775Z,42
2017-10-28T07:52:51.145Z,42
2017-10-28T07:54:00.511Z,41.91
2017-10-28T07:55:09.541Z,41.91
2017-10-28T07:56:18.584Z,42
2017-10-28T07:57:27.285Z,42.1
2017-10-28T07:58:36.313Z,41.81
2017-10-28T07:59:45.341Z,41.61
2017-10-28T08:00:55.371Z,41.71
2017-10-28T08:02:04.402Z,41.71
2017-10-28T08:03:13.432Z,41.71
2017-10-28T08:04:22.458Z,42.1
2017-10-28T08:05:31.817Z,41.61
2017-10-28T08:06:40.520Z,42.1
2017-10-28T08:07:49.557Z,41.81
2017-10-28T08:08:58.912Z,41.71
2017-10-28T08:10:07.608Z,41.81
2017-10-28T08:11:16.640Z,41.61
2017-10-28T08:12:25.337Z,42.19
2017-10-28T08:13:34.707Z,41.61
2017-10-28T08:14:43.731Z,41.42
2017-10-28T08:15:53.094Z,41.61
2017-10-28T08:17:01.790Z,41.42
2017-10-28T08:18:10.500Z,42
2017-10-28T08:19:19.529Z,41.61
2017-10-28T08:20:28.561Z,41.91
2017-10-28T08:21:37.608Z,41.13
2017-10-28T08:22:46.976Z,41.33
2017-10-28T08:23:56.010Z,41.33
2017-10-28T08:25:04.708Z,41.81
2017-10-28T08:26:14.069Z,41.42
2017-10-28T08:27:22.817Z,41.03
2017-10-28T08:28:31.513Z,41.42
2017-10-28T08:29:40.570Z,41.71
2017-10-28T08:30:49.572Z,41.71
2017-10-28T08:31:58.274Z,41.23
2017-10-28T08:33:07.303Z,41.23
2017-10-28T08:34:16.334Z,40.94
2017-10-28T08:35:25.690Z,41.13
2017-10-28T08:36:35.383Z,41.23
2017-10-28T08:37:44.747Z,41.33
2017-10-28T08:38:54.107Z,41.23
2017-10-28T08:40:02.808Z,41.33
2017-10-28T08:41:11.498Z,41.33
2017-10-28T08:42:20.862Z,41.33
2017-10-28T08:43:29.570Z,41.33
2017-10-28T08:44:38.585Z,41.33
2017-10-28T08:45:47.613Z,41.42
2017-10-28T08:46:56.654Z,41.23
2017-10-28T08:48:05.684Z,41.33
2017-10-28T08:49:15.382Z,41.42
2017-10-28T08:50:24.411Z,41.03
2017-10-28T08:51:34.123Z,41.33
2017-10-28T08:52:43.154Z,41.03
2017-10-28T08:53:52.533Z,41.42
2017-10-28T08:55:01.577Z,41.42
2017-10-28T08:56:11.273Z,41.81
2017-10-28T08:57:20.297Z,41.33
2017-10-28T08:58:29.328Z,41.61
2017-10-28T08:59:38.363Z,41.13
2017-10-28T09:00:47.738Z,40.96
2017-10-28T09:01:57.103Z,41.23
2017-10-28T09:03:06.137Z,41.83
2017-10-28T09:04:15.169Z,41.81
2017-10-28T09:05:23.862Z,40.94
2017-10-28T09:06:32.889Z,41.03
2017-10-28T09:07:41.920Z,41.23
2017-10-28T09:08:50.619Z,41.71
2017-10-28T09:09:59.655Z,41.33
2017-10-28T09:11:09.016Z,41.33
2017-10-28T09:12:18.389Z,41.91
2017-10-28T09:13:27.755Z,41.44
2017-10-28T09:14:37.120Z,41.44
2017-10-28T09:15:45.820Z,40.94
2017-10-28T09:16:55.851Z,41.35
2017-10-28T09:18:04.882Z,40.96
2017-10-28T09:19:13.913Z,41.05
2017-10-28T09:20:22.945Z,41.25
2017-10-28T09:21:32.644Z,40.96
2017-10-28T09:22:42.003Z,40.96
2017-10-28T09:23:51.695Z,40.86
2017-10-28T09:25:00.397Z,41.25
2017-10-28T09:26:09.096Z,41.25
2017-10-28T09:27:17.796Z,41.25
2017-10-28T09:28:27.160Z,41.35
2017-10-28T09:29:35.856Z,41.35
2017-10-28T09:30:44.885Z,41.05
2017-10-28T09:31:53.935Z,40.96
2017-10-28T09:33:02.968Z,40.96
2017-10-28T09:34:11.998Z,40.86
2017-10-28T09:35:21.018Z,40.57
2017-10-28T09:36:30.439Z,40.77
2017-10-28T09:37:39.418Z,40.96
2017-10-28T09:38:48.115Z,40.67
2017-10-28T09:39:57.527Z,40.96
2017-10-28T09:41:06.559Z,40.38
2017-10-28T09:42:15.922Z,40.96
2017-10-28T09:43:24.950Z,40.57
2017-10-28T09:44:33.651Z,40.28
2017-10-28T09:45:42.696Z,40.86
2017-10-28T09:46:51.726Z,40.86
2017-10-28T09:48:01.094Z,40.96
2017-10-28T09:49:10.120Z,40.57
2017-10-28T09:50:19.150Z,40.38
2017-10-28T09:51:28.517Z,40.67
2017-10-28T09:52:37.550Z,40.38
2017-10-28T09:53:46.573Z,40.28
2017-10-28T09:54:55.605Z,41.05
2017-10-28T09:56:04.633Z,40.96
2017-10-28T09:57:13.675Z,40.38
2017-10-28T09:58:22.373Z,40.28
2017-10-28T09:59:31.742Z,40.28
2017-10-28T10:00:40.791Z,40.38
2017-10-28T10:01:49.825Z,40.47
2017-10-28T10:02:59.191Z,40.86
2017-10-28T10:04:07.894Z,40.47
2017-10-28T10:05:17.256Z,40.86
2017-10-28T10:06:26.958Z,40.86
2017-10-28T10:07:36.991Z,40.67
2017-10-28T10:08:46.023Z,41.15
2017-10-28T10:09:55.056Z,40.47
2017-10-28T10:11:04.749Z,40.67
2017-10-28T10:12:14.113Z,40.47
2017-10-28T10:13:23.142Z,40.86
2017-10-28T10:14:32.504Z,40.47
2017-10-28T10:15:41.204Z,40.47
2017-10-28T10:16:50.575Z,40.47
2017-10-28T10:17:59.609Z,40.96
2017-10-28T10:19:08.646Z,40.86
2017-10-28T10:20:17.678Z,40.57
2017-10-28T10:21:26.705Z,40.57
2017-10-28T10:22:35.734Z,40.96
2017-10-28T10:23:44.762Z,40.57
2017-10-28T10:24:53.460Z,40.38
2017-10-28T10:26:02.157Z,40.38
2017-10-28T10:27:11.187Z,40.38
2017-10-28T10:28:19.885Z,40.38
2017-10-28T10:29:28.581Z,40.67
2017-10-28T10:30:37.946Z,40.47
2017-10-28T10:31:47.316Z,40.57
2017-10-28T10:32:57.021Z,40.96
2017-10-28T10:34:06.385Z,40.57
2017-10-28T10:35:15.418Z,40.67
2017-10-28T10:36:24.782Z,40.38
2017-10-28T10:37:33.810Z,40.75
2017-10-28T10:38:43.171Z,41.05
2017-10-28T10:39:51.869Z,40.77
2017-10-28T10:41:00.901Z,40.67
2017-10-28T10:42:10.603Z,40.38
2017-10-28T10:43:19.641Z,41.05
2017-10-28T10:44:28.338Z,40.96
2017-10-28T10:45:37.381Z,40.86
2017-10-28T10:46:47.074Z,40.96
2017-10-28T10:47:56.431Z,40.77
2017-10-28T10:49:05.464Z,40.77
2017-10-28T10:50:14.503Z,40.86
2017-10-28T10:51:23.534Z,40.47
2017-10-28T10:52:32.232Z,40.38
2017-10-28T10:53:41.267Z,40.38
2017-10-28T10:54:50.629Z,40.38
2017-10-28T10:55:59.663Z,40.28
2017-10-28T10:57:08.691Z,40.38
2017-10-28T10:58:18.057Z,40.47
2017-10-28T10:59:27.103Z,40.38
2017-10-28T11:00:36.467Z,40.28
2017-10-28T11:01:46.506Z,41.15
2017-10-28T11:02:55.203Z,40.38
2017-10-28T11:04:04.232Z,40.38
2017-10-28T11:05:13.266Z,40.47
2017-10-28T11:06:23.292Z,40.38
2017-10-28T11:07:32.335Z,41.05
2017-10-28T11:08:41.709Z,40.38
2017-10-28T11:09:51.071Z,40.86
2017-10-28T11:11:00.433Z,40.47
2017-10-28T11:12:09.795Z,40.47
2017-10-28T11:13:18.822Z,40.47
2017-10-28T11:14:27.525Z,40.47
2017-10-28T11:15:36.558Z,40.77
2017-10-28T11:16:46.600Z,40.86
2017-10-28T11:17:55.634Z,40.38
2017-10-28T11:19:04.688Z,40.47
2017-10-28T11:20:13.390Z,40.86
2017-10-28T11:21:22.765Z,40.57
2017-10-28T11:22:32.119Z,40.47
2017-10-28T11:23:40.824Z,40.47
2017-10-28T11:24:50.197Z,40.86
2017-10-28T11:25:59.227Z,40.57
2017-10-28T11:27:08.258Z,40.28
2017-10-28T11:28:17.951Z,40.28
2017-10-28T11:29:26.984Z,40.19
2017-10-28T11:30:36.355Z,40.47
2017-10-28T11:31:46.059Z,40.86
2017-10-28T11:32:55.762Z,40.96
2017-10-28T11:34:05.136Z,40.77
2017-10-28T11:35:14.501Z,40.47
2017-10-28T11:36:23.871Z,40.38
2017-10-28T11:37:32.572Z,41.05
2017-10-28T11:38:41.271Z,40.57
2017-10-28T11:39:50.333Z,40.77
2017-10-28T11:40:59.701Z,40.67
2017-10-28T11:42:08.393Z,40.77
2017-10-28T11:43:17.094Z,40.77
2017-10-28T11:44:26.457Z,40.38
2017-10-28T11:45:35.490Z,40.67
2017-10-28T11:46:44.859Z,40.77
2017-10-28T11:47:54.224Z,40.19
2017-10-28T11:49:03.922Z,40.19
2017-10-28T11:50:12.955Z,40.67
2017-10-28T11:51:22.316Z,40.47
2017-10-28T11:52:31.350Z,40.47
2017-10-28T11:53:40.707Z,39.99
2017-10-28T11:54:49.407Z,40.47
2017-10-28T11:55:58.105Z,39.8
2017-10-28T11:57:07.794Z,40.38
2017-10-28T11:58:17.158Z,40.57
2017-10-28T11:59:25.852Z,39.9
2017-10-28T12:00:34.891Z,39.7
2017-10-28T12:01:43.925Z,39.9
2017-10-28T12:02:52.954Z,40.38
2017-10-28T12:04:01.978Z,39.9
2017-10-28T12:05:11.346Z,39.9
2017-10-28T12:06:20.379Z,39.9
2017-10-28T12:07:29.411Z,40.09
2017-10-28T12:08:39.113Z,39.9
2017-10-28T12:09:48.143Z,40.28
2017-10-28T12:10:57.183Z,40.28
2017-10-28T12:12:06.211Z,39.9
2017-10-28T12:13:14.911Z,40.38
2017-10-28T12:14:23.940Z,39.8
2017-10-28T12:15:32.969Z,39.9
2017-10-28T12:16:41.668Z,39.9
2017-10-28T12:17:50.362Z,40.38
2017-10-28T12:18:59.062Z,40.47
2017-10-28T12:20:07.769Z,40.47
2017-10-28T12:21:16.799Z,39.9
2017-10-28T12:22:26.500Z,39.8
2017-10-28T12:23:35.533Z,39.8
2017-10-28T12:24:44.897Z,39.9
2017-10-28T12:25:54.263Z,39.8
2017-10-28T12:27:03.294Z,40.67
2017-10-28T12:28:12.995Z,39.8
2017-10-28T12:29:22.023Z,39.9
2017-10-28T12:30:31.401Z,39.9
2017-10-28T12:31:40.430Z,39.8
2017-10-28T12:32:49.462Z,40.28
2017-10-28T12:33:58.498Z,40.38
2017-10-28T12:35:07.195Z,40.38
2017-10-28T12:36:16.561Z,40.28
2017-10-28T12:37:26.933Z,39.9
2017-10-28T12:38:35.632Z,39.99
2017-10-28T12:39:44.674Z,39.9
2017-10-28T12:40:54.033Z,39.61
2017-10-28T12:42:03.073Z,40.28
2017-10-28T12:43:12.101Z,39.8
2017-10-28T12:44:20.803Z,39.99
2017-10-28T12:45:29.828Z,40.28
2017-10-28T12:46:38.528Z,39.7
2017-10-28T12:47:48.228Z,40.28
2017-10-28T12:48:56.930Z,39.7
2017-10-28T12:50:05.963Z,39.9
2017-10-28T12:51:15.326Z,39.9
2017-10-28T12:52:24.359Z,39.8
2017-10-28T12:53:33.388Z,40.28
2017-10-28T12:54:42.423Z,39.8
2017-10-28T12:55:51.804Z,40.28
2017-10-28T12:57:00.519Z,40.09
2017-10-28T12:58:09.899Z,40.19
2017-10-28T12:59:18.588Z,39.9
2017-10-28T13:00:27.616Z,39.7
2017-10-28T13:01:36.650Z,39.8
2017-10-28T13:02:45.348Z,40.28
2017-10-28T13:03:54.049Z,39.7
2017-10-28T13:05:02.750Z,40.38
2017-10-28T13:06:12.126Z,39.61
2017-10-28T13:07:20.822Z,39.8
2017-10-28T13:08:30.185Z,39.9
2017-10-28T13:09:39.550Z,39.9
2017-10-28T13:10:48.247Z,39.9
2017-10-28T13:11:57.609Z,39.8
2017-10-28T13:13:06.305Z,39.8
2017-10-28T13:14:15.339Z,39.61
2017-10-28T13:15:24.699Z,39.99
2017-10-28T13:16:33.738Z,39.9
2017-10-28T13:17:43.440Z,39.61
2017-10-28T13:18:52.799Z,39.9
2017-10-28T13:20:01.502Z,39.8
2017-10-28T13:21:10.863Z,39.9
2017-10-28T13:22:19.897Z,40.19
2017-10-28T13:23:29.255Z,40.19
2017-10-28T13:24:37.953Z,39.8
2017-10-28T13:25:46.651Z,39.8
2017-10-28T13:26:55.684Z,39.61
2017-10-28T13:28:04.716Z,39.7
2017-10-28T13:29:13.752Z,40.09
2017-10-28T13:30:22.785Z,39.7
2017-10-28T13:31:31.821Z,40.09
2017-10-28T13:32:40.857Z,40.28
2017-10-28T13:33:50.223Z,39.8
2017-10-28T13:34:59.585Z,40.09
2017-10-28T13:36:09.282Z,39.8
2017-10-28T13:37:18.651Z,39.8
2017-10-28T13:38:28.354Z,39.8
2017-10-28T13:39:37.401Z,39.9
2017-10-28T13:40:46.085Z,39.99
2017-10-28T13:41:54.784Z,39.7
2017-10-28T13:43:03.818Z,39.8
2017-10-28T13:44:12.847Z,39.7
2017-10-28T13:45:21.573Z,39.8
2017-10-28T13:46:30.612Z,39.7
2017-10-28T13:47:39.644Z,39.99
2017-10-28T13:48:49.676Z,40.09
2017-10-28T13:49:58.703Z,39.8
2017-10-28T13:51:07.734Z,39.61
2017-10-28T13:52:16.429Z,39.7
2017-10-28T13:53:26.123Z,39.8
2017-10-28T13:54:34.829Z,39.99
2017-10-28T13:55:43.883Z,39.99
2017-10-28T13:56:52.547Z,39.51
2017-10-28T13:58:01.576Z,39.9
2017-10-28T13:59:10.612Z,39.51
2017-10-28T14:00:19.308Z,39.8
2017-10-28T14:01:28.336Z,39.9
2017-10-28T14:02:37.850Z,39.7
2017-10-28T14:03:46.883Z,40.09
2017-10-28T14:04:55.912Z,39.61
2017-10-28T14:06:04.949Z,39.8
2017-10-28T14:07:13.648Z,39.99
2017-10-28T14:08:22.837Z,39.51
2017-10-28T14:09:31.864Z,39.51
2017-10-28T14:10:40.561Z,39.8
2017-10-28T14:11:49.256Z,39.8
2017-10-28T14:12:58.951Z,39.61
2017-10-28T14:14:08.315Z,39.61
2017-10-28T14:15:18.020Z,39.61
2017-10-28T14:16:27.044Z,39.8
2017-10-28T14:17:36.415Z,39.8
2017-10-28T14:18:45.780Z,39.9
2017-10-28T14:19:54.474Z,40.19
2017-10-28T14:21:03.511Z,39.8
2017-10-28T14:22:12.199Z,39.7
2017-10-28T14:23:20.898Z,39.7
2017-10-28T14:24:30.279Z,39.8
2017-10-28T14:25:39.644Z,39.8
2017-10-28T14:26:48.678Z,39.8
2017-10-28T14:27:57.710Z,40.09
2017-10-28T14:29:07.071Z,39.8
2017-10-28T14:30:16.100Z,39.8
2017-10-28T14:31:25.145Z,39.8
2017-10-28T14:32:34.177Z,39.7
2017-10-28T14:33:43.546Z,40.09
2017-10-28T14:34:52.578Z,40.09
2017-10-28T14:36:01.604Z,39.7
2017-10-28T14:37:10.631Z,39.7
2017-10-28T14:38:20.012Z,39.99
2017-10-28T14:39:29.376Z,40.19
2017-10-28T14:40:38.076Z,39.8
2017-10-28T14:41:47.118Z,39.7
2017-10-28T14:42:55.806Z,39.8
2017-10-28T14:44:04.843Z,40.38
2017-10-28T14:45:14.210Z,40.19
2017-10-28T14:46:23.922Z,39.7
2017-10-28T14:47:32.621Z,40.38
2017-10-28T14:48:41.656Z,39.7
2017-10-28T14:49:51.018Z,39.8
2017-10-28T14:51:00.052Z,39.8
2017-10-28T14:52:09.086Z,40.36
2017-10-28T14:53:17.787Z,39.9
2017-10-28T14:54:26.826Z,40.38
2017-10-28T14:55:35.855Z,40.19